sensor_id;sensor_type;location;lat;lon;timestamp;P1;durP1;ratioP1;P2;durP2;ratioP2
70953;SDS011;58618;47.490;8.736;2022-11-15T00:00:00;2.05;;;1.30;;
70953;SDS011;58618;47.490;8.736;2022-11-15T00:02:47;2.08;;;1.23;;
70953;SDS011;58618;47.490;8.736;2022-11-15T00:05:36;2.03;;;1.30;;
70953;SDS011;58618;47.490;8.736;2022-11-15T00:08:23;1.70;;;1.30;;
70953;SDS011;58618;47.490;8.736;2022-11-15T00:11:11;1.30;;;1.20;;
70953;SDS011;58618;47.490;8.736;2022-11-15T00:13:59;3.00;;;1.40;;
70953;SDS011;58618;47.490;8.736;2022-11-15T00:16:48;1.33;;;1.05;;
70953;SDS011;58618;47.490;8.736;2022-11-15T00:19:35;1.30;;;1.03;;
70953;SDS011;58618;47.490;8.736;2022-11-15T00:22:24;1.65;;;1.02;;
70953;SDS011;58618;47.490;8.736;2022-11-15T00:25:11;4.50;;;0.90;;
70953;SDS011;58618;47.490;8.736;2022-11-15T00:27:59;1.83;;;1.05;;
70953;SDS011;58618;47.490;8.736;2022-11-15T00:30:47;2.38;;;1.25;;
70953;SDS011;58618;47.490;8.736;2022-11-15T00:33:34;6.97;;;1.40;;
70953;SDS011;58618;47.490;8.736;2022-11-15T00:36:22;1.10;;;1.00;;
70953;SDS011;58618;47.490;8.736;2022-11-15T00:39:10;3.42;;;1.80;;
70953;SDS011;58618;47.490;8.736;2022-11-15T00:41:58;2.00;;;1.38;;
70953;SDS011;58618;47.490;8.736;2022-11-15T00:44:45;1.48;;;1.27;;
70953;SDS011;58618;47.490;8.736;2022-11-15T00:47:33;1.90;;;1.00;;
70953;SDS011;58618;47.490;8.736;2022-11-15T00:50:20;1.55;;;1.33;;
70953;SDS011;58618;47.490;8.736;2022-11-15T00:53:07;5.10;;;1.25;;
70953;SDS011;58618;47.490;8.736;2022-11-15T00:55:56;2.55;;;1.52;;
70953;SDS011;58618;47.490;8.736;2022-11-15T00:58:43;3.05;;;1.10;;
70953;SDS011;58618;47.490;8.736;2022-11-15T01:01:31;2.93;;;1.50;;
70953;SDS011;58618;47.490;8.736;2022-11-15T01:04:18;0.98;;;0.88;;
70953;SDS011;58618;47.490;8.736;2022-11-15T01:07:06;2.20;;;1.70;;
70953;SDS011;58618;47.490;8.736;2022-11-15T01:09:53;1.70;;;1.27;;
70953;SDS011;58618;47.490;8.736;2022-11-15T01:12:42;2.65;;;1.55;;
70953;SDS011;58618;47.490;8.736;2022-11-15T01:15:29;2.77;;;1.40;;
70953;SDS011;58618;47.490;8.736;2022-11-15T01:18:16;1.60;;;1.30;;
70953;SDS011;58618;47.490;8.736;2022-11-15T01:21:04;2.25;;;1.55;;
70953;SDS011;58618;47.490;8.736;2022-11-15T01:23:53;1.85;;;1.33;;
70953;SDS011;58618;47.490;8.736;2022-11-15T01:26:41;1.38;;;1.13;;
70953;SDS011;58618;47.490;8.736;2022-11-15T01:29:30;1.37;;;1.17;;
70953;SDS011;58618;47.490;8.736;2022-11-15T01:32:17;3.60;;;1.48;;
70953;SDS011;58618;47.490;8.736;2022-11-15T01:35:05;1.80;;;1.52;;
70953;SDS011;58618;47.490;8.736;2022-11-15T01:37:53;2.50;;;1.55;;
70953;SDS011;58618;47.490;8.736;2022-11-15T01:40:40;2.00;;;1.48;;
70953;SDS011;58618;47.490;8.736;2022-11-15T01:43:28;2.63;;;1.67;;
70953;SDS011;58618;47.490;8.736;2022-11-15T01:46:30;1.77;;;1.50;;
70953;SDS011;58618;47.490;8.736;2022-11-15T01:49:21;1.70;;;1.25;;
70953;SDS011;58618;47.490;8.736;2022-11-15T01:52:12;3.28;;;2.00;;
70953;SDS011;58618;47.490;8.736;2022-11-15T01:55:02;5.07;;;1.55;;
70953;SDS011;58618;47.490;8.736;2022-11-15T01:57:54;2.00;;;1.53;;
70953;SDS011;58618;47.490;8.736;2022-11-15T02:00:44;3.47;;;1.98;;
70953;SDS011;58618;47.490;8.736;2022-11-15T02:03:34;2.10;;;1.20;;
70953;SDS011;58618;47.490;8.736;2022-11-15T02:06:28;2.28;;;1.60;;
70953;SDS011;58618;47.490;8.736;2022-11-15T02:09:16;1.60;;;1.33;;
70953;SDS011;58618;47.490;8.736;2022-11-15T02:12:03;1.97;;;1.23;;
70953;SDS011;58618;47.490;8.736;2022-11-15T02:14:53;1.50;;;1.10;;
70953;SDS011;58618;47.490;8.736;2022-11-15T02:17:48;2.38;;;1.42;;
70953;SDS011;58618;47.490;8.736;2022-11-15T02:21:04;1.55;;;1.30;;
70953;SDS011;58618;47.490;8.736;2022-11-15T02:24:06;1.92;;;1.17;;
70953;SDS011;58618;47.490;8.736;2022-11-15T02:30:42;1.42;;;1.15;;
70953;SDS011;58618;47.490;8.736;2022-11-15T02:33:35;1.88;;;1.40;;
70953;SDS011;58618;47.490;8.736;2022-11-15T02:36:32;2.67;;;1.30;;
70953;SDS011;58618;47.490;8.736;2022-11-15T02:39:26;1.10;;;1.00;;
70953;SDS011;58618;47.490;8.736;2022-11-15T02:42:19;1.93;;;1.53;;
70953;SDS011;58618;47.490;8.736;2022-11-15T02:45:30;2.53;;;1.50;;
70953;SDS011;58618;47.490;8.736;2022-11-15T02:48:24;1.65;;;1.20;;
70953;SDS011;58618;47.490;8.736;2022-11-15T02:51:13;3.50;;;1.70;;
70953;SDS011;58618;47.490;8.736;2022-11-15T02:54:00;2.00;;;1.50;;
70953;SDS011;58618;47.490;8.736;2022-11-15T02:56:48;3.30;;;1.63;;
70953;SDS011;58618;47.490;8.736;2022-11-15T02:59:41;2.72;;;1.70;;
70953;SDS011;58618;47.490;8.736;2022-11-15T03:02:42;1.77;;;1.20;;
70953;SDS011;58618;47.490;8.736;2022-11-15T03:05:46;1.95;;;1.20;;
70953;SDS011;58618;47.490;8.736;2022-11-15T03:08:43;2.88;;;1.23;;
70953;SDS011;58618;47.490;8.736;2022-11-15T03:11:40;1.67;;;1.33;;
70953;SDS011;58618;47.490;8.736;2022-11-15T03:14:32;2.50;;;1.50;;
70953;SDS011;58618;47.490;8.736;2022-11-15T03:17:23;1.80;;;1.10;;
70953;SDS011;58618;47.490;8.736;2022-11-15T03:20:13;2.10;;;1.50;;
70953;SDS011;58618;47.490;8.736;2022-11-15T03:23:07;1.80;;;1.50;;
70953;SDS011;58618;47.490;8.736;2022-11-15T03:25:57;2.10;;;1.60;;
70953;SDS011;58618;47.490;8.736;2022-11-15T03:28:47;1.88;;;1.02;;
70953;SDS011;58618;47.490;8.736;2022-11-15T03:31:38;1.60;;;1.20;;
70953;SDS011;58618;47.490;8.736;2022-11-15T03:34:35;1.77;;;1.30;;
70953;SDS011;58618;47.490;8.736;2022-11-15T03:37:29;2.95;;;1.05;;
70953;SDS011;58618;47.490;8.736;2022-11-15T03:40:24;2.00;;;1.37;;
70953;SDS011;58618;47.490;8.736;2022-11-15T03:43:15;1.52;;;1.05;;
70953;SDS011;58618;47.490;8.736;2022-11-15T03:46:19;2.40;;;1.27;;
70953;SDS011;58618;47.490;8.736;2022-11-15T03:49:14;1.27;;;1.05;;
70953;SDS011;58618;47.490;8.736;2022-11-15T03:52:04;1.77;;;1.25;;
70953;SDS011;58618;47.490;8.736;2022-11-15T03:54:53;4.00;;;1.57;;
70953;SDS011;58618;47.490;8.736;2022-11-15T03:57:44;2.13;;;1.42;;
70953;SDS011;58618;47.490;8.736;2022-11-15T04:00:32;2.25;;;1.38;;
70953;SDS011;58618;47.490;8.736;2022-11-15T04:03:19;3.85;;;1.23;;
70953;SDS011;58618;47.490;8.736;2022-11-15T04:06:07;1.85;;;1.50;;
70953;SDS011;58618;47.490;8.736;2022-11-15T04:08:54;1.40;;;1.07;;
70953;SDS011;58618;47.490;8.736;2022-11-15T04:11:41;3.65;;;1.65;;
70953;SDS011;58618;47.490;8.736;2022-11-15T04:14:30;2.13;;;1.85;;
70953;SDS011;58618;47.490;8.736;2022-11-15T04:17:17;2.92;;;1.10;;
70953;SDS011;58618;47.490;8.736;2022-11-15T04:20:05;1.73;;;1.45;;
70953;SDS011;58618;47.490;8.736;2022-11-15T04:23:13;2.47;;;1.40;;
70953;SDS011;58618;47.490;8.736;2022-11-15T04:26:20;1.88;;;1.25;;
70953;SDS011;58618;47.490;8.736;2022-11-15T04:29:09;1.65;;;1.45;;
70953;SDS011;58618;47.490;8.736;2022-11-15T04:32:15;1.73;;;1.45;;
70953;SDS011;58618;47.490;8.736;2022-11-15T04:35:03;1.83;;;1.35;;
70953;SDS011;58618;47.490;8.736;2022-11-15T04:37:51;1.17;;;1.03;;
70953;SDS011;58618;47.490;8.736;2022-11-15T04:40:38;1.98;;;1.40;;
70953;SDS011;58618;47.490;8.736;2022-11-15T04:43:26;2.40;;;1.52;;
70953;SDS011;58618;47.490;8.736;2022-11-15T04:46:13;1.33;;;1.15;;
70953;SDS011;58618;47.490;8.736;2022-11-15T04:49:02;1.05;;;0.80;;
70953;SDS011;58618;47.490;8.736;2022-11-15T04:51:49;2.20;;;1.13;;
70953;SDS011;58618;47.490;8.736;2022-11-15T04:54:37;1.95;;;1.13;;
70953;SDS011;58618;47.490;8.736;2022-11-15T04:57:24;2.70;;;1.60;;
70953;SDS011;58618;47.490;8.736;2022-11-15T05:00:12;2.15;;;0.88;;
70953;SDS011;58618;47.490;8.736;2022-11-15T05:03:01;1.17;;;1.05;;
70953;SDS011;58618;47.490;8.736;2022-11-15T05:06:08;1.10;;;1.00;;
70953;SDS011;58618;47.490;8.736;2022-11-15T05:08:55;1.55;;;1.20;;
70953;SDS011;58618;47.490;8.736;2022-11-15T05:11:42;1.08;;;0.90;;
70953;SDS011;58618;47.490;8.736;2022-11-15T05:14:30;4.03;;;1.45;;
70953;SDS011;58618;47.490;8.736;2022-11-15T05:17:17;1.23;;;1.10;;
70953;SDS011;58618;47.490;8.736;2022-11-15T05:20:05;1.17;;;0.70;;
70953;SDS011;58618;47.490;8.736;2022-11-15T05:22:54;2.20;;;1.08;;
70953;SDS011;58618;47.490;8.736;2022-11-15T05:25:42;1.05;;;0.88;;
70953;SDS011;58618;47.490;8.736;2022-11-15T05:28:30;1.55;;;1.05;;
70953;SDS011;58618;47.490;8.736;2022-11-15T05:31:18;1.40;;;1.10;;
70953;SDS011;58618;47.490;8.736;2022-11-15T05:34:05;1.63;;;1.30;;
70953;SDS011;58618;47.490;8.736;2022-11-15T05:36:53;1.02;;;0.82;;
70953;SDS011;58618;47.490;8.736;2022-11-15T05:39:41;1.10;;;0.75;;
70953;SDS011;58618;47.490;8.736;2022-11-15T05:42:29;1.02;;;0.80;;
70953;SDS011;58618;47.490;8.736;2022-11-15T05:45:17;1.73;;;1.30;;
70953;SDS011;58618;47.490;8.736;2022-11-15T05:48:05;1.23;;;1.00;;
70953;SDS011;58618;47.490;8.736;2022-11-15T05:50:55;8.23;;;0.95;;
70953;SDS011;58618;47.490;8.736;2022-11-15T05:53:43;1.23;;;1.00;;
70953;SDS011;58618;47.490;8.736;2022-11-15T05:56:33;1.38;;;0.80;;
70953;SDS011;58618;47.490;8.736;2022-11-15T05:59:20;0.65;;;0.65;;
70953;SDS011;58618;47.490;8.736;2022-11-15T06:02:08;2.03;;;0.77;;
70953;SDS011;58618;47.490;8.736;2022-11-15T06:04:55;1.13;;;0.88;;
70953;SDS011;58618;47.490;8.736;2022-11-15T06:07:43;1.40;;;0.90;;
70953;SDS011;58618;47.490;8.736;2022-11-15T06:10:30;0.90;;;0.60;;
70953;SDS011;58618;47.490;8.736;2022-11-15T06:13:19;1.83;;;1.13;;
70953;SDS011;58618;47.490;8.736;2022-11-15T06:16:06;1.20;;;0.80;;
70953;SDS011;58618;47.490;8.736;2022-11-15T06:18:54;2.60;;;1.05;;
70953;SDS011;58618;47.490;8.736;2022-11-15T06:21:41;1.33;;;1.10;;
70953;SDS011;58618;47.490;8.736;2022-11-15T06:24:28;0.98;;;0.80;;
70953;SDS011;58618;47.490;8.736;2022-11-15T06:27:16;1.50;;;1.02;;
70953;SDS011;58618;47.490;8.736;2022-11-15T06:30:05;1.13;;;0.80;;
70953;SDS011;58618;47.490;8.736;2022-11-15T06:32:58;0.65;;;0.65;;
70953;SDS011;58618;47.490;8.736;2022-11-15T06:35:47;0.77;;;0.60;;
70953;SDS011;58618;47.490;8.736;2022-11-15T06:38:34;1.15;;;0.77;;
70953;SDS011;58618;47.490;8.736;2022-11-15T06:41:22;0.93;;;0.88;;
70953;SDS011;58618;47.490;8.736;2022-11-15T06:44:10;1.90;;;1.00;;
70953;SDS011;58618;47.490;8.736;2022-11-15T06:46:58;1.10;;;1.00;;
70953;SDS011;58618;47.490;8.736;2022-11-15T06:49:45;2.97;;;1.08;;
70953;SDS011;58618;47.490;8.736;2022-11-15T06:52:33;1.85;;;1.40;;
70953;SDS011;58618;47.490;8.736;2022-11-15T06:55:20;1.55;;;1.17;;
70953;SDS011;58618;47.490;8.736;2022-11-15T06:58:08;1.17;;;1.00;;
70953;SDS011;58618;47.490;8.736;2022-11-15T07:00:58;1.85;;;1.13;;
70953;SDS011;58618;47.490;8.736;2022-11-15T07:03:48;1.45;;;1.17;;
70953;SDS011;58618;47.490;8.736;2022-11-15T07:06:35;1.40;;;1.00;;
70953;SDS011;58618;47.490;8.736;2022-11-15T07:09:23;1.35;;;1.02;;
70953;SDS011;58618;47.490;8.736;2022-11-15T07:12:10;1.87;;;1.17;;
70953;SDS011;58618;47.490;8.736;2022-11-15T07:14:57;2.28;;;1.50;;
70953;SDS011;58618;47.490;8.736;2022-11-15T07:17:45;1.50;;;0.90;;
70953;SDS011;58618;47.490;8.736;2022-11-15T07:20:33;1.10;;;0.88;;
70953;SDS011;58618;47.490;8.736;2022-11-15T07:23:20;1.50;;;1.05;;
70953;SDS011;58618;47.490;8.736;2022-11-15T07:26:08;1.67;;;1.30;;
70953;SDS011;58618;47.490;8.736;2022-11-15T07:28:55;1.52;;;1.25;;
70953;SDS011;58618;47.490;8.736;2022-11-15T07:31:42;2.17;;;1.20;;
70953;SDS011;58618;47.490;8.736;2022-11-15T07:34:30;4.47;;;1.77;;
70953;SDS011;58618;47.490;8.736;2022-11-15T07:37:19;2.10;;;1.48;;
70953;SDS011;58618;47.490;8.736;2022-11-15T07:40:07;2.80;;;1.67;;
70953;SDS011;58618;47.490;8.736;2022-11-15T07:42:58;2.30;;;1.65;;
70953;SDS011;58618;47.490;8.736;2022-11-15T07:45:46;2.42;;;1.40;;
70953;SDS011;58618;47.490;8.736;2022-11-15T07:48:34;1.98;;;1.35;;
70953;SDS011;58618;47.490;8.736;2022-11-15T07:51:22;1.35;;;0.95;;
70953;SDS011;58618;47.490;8.736;2022-11-15T07:54:11;2.00;;;1.50;;
70953;SDS011;58618;47.490;8.736;2022-11-15T07:56:59;2.03;;;1.33;;
70953;SDS011;58618;47.490;8.736;2022-11-15T07:59:46;1.88;;;1.45;;
70953;SDS011;58618;47.490;8.736;2022-11-15T08:02:33;2.70;;;1.77;;
70953;SDS011;58618;47.490;8.736;2022-11-15T08:05:21;1.98;;;1.58;;
70953;SDS011;58618;47.490;8.736;2022-11-15T08:08:09;2.97;;;1.87;;
70953;SDS011;58618;47.490;8.736;2022-11-15T08:10:58;3.20;;;2.05;;
70953;SDS011;58618;47.490;8.736;2022-11-15T08:13:47;6.07;;;2.10;;
70953;SDS011;58618;47.490;8.736;2022-11-15T08:16:34;2.90;;;1.50;;
70953;SDS011;58618;47.490;8.736;2022-11-15T08:19:21;1.70;;;1.30;;
70953;SDS011;58618;47.490;8.736;2022-11-15T08:22:09;3.27;;;2.33;;
70953;SDS011;58618;47.490;8.736;2022-11-15T08:24:56;2.50;;;1.52;;
70953;SDS011;58618;47.490;8.736;2022-11-15T08:27:45;2.30;;;1.50;;
70953;SDS011;58618;47.490;8.736;2022-11-15T08:30:34;2.97;;;1.50;;
70953;SDS011;58618;47.490;8.736;2022-11-15T08:33:23;2.42;;;1.50;;
70953;SDS011;58618;47.490;8.736;2022-11-15T08:36:12;3.63;;;1.40;;
70953;SDS011;58618;47.490;8.736;2022-11-15T08:39:01;2.55;;;1.40;;
70953;SDS011;58618;47.490;8.736;2022-11-15T08:41:48;2.22;;;1.48;;
70953;SDS011;58618;47.490;8.736;2022-11-15T08:44:37;1.77;;;1.30;;
70953;SDS011;58618;47.490;8.736;2022-11-15T08:47:25;3.05;;;1.95;;
70953;SDS011;58618;47.490;8.736;2022-11-15T08:50:12;4.13;;;1.73;;
70953;SDS011;58618;47.490;8.736;2022-11-15T08:53:04;2.20;;;1.70;;
70953;SDS011;58618;47.490;8.736;2022-11-15T08:55:52;3.10;;;2.10;;
70953;SDS011;58618;47.490;8.736;2022-11-15T08:58:39;2.42;;;1.63;;
70953;SDS011;58618;47.490;8.736;2022-11-15T09:01:29;3.03;;;1.85;;
70953;SDS011;58618;47.490;8.736;2022-11-15T09:04:18;2.43;;;1.60;;
70953;SDS011;58618;47.490;8.736;2022-11-15T09:07:05;3.03;;;1.73;;
70953;SDS011;58618;47.490;8.736;2022-11-15T09:09:53;2.58;;;1.65;;
70953;SDS011;58618;47.490;8.736;2022-11-15T09:12:40;2.45;;;1.67;;
70953;SDS011;58618;47.490;8.736;2022-11-15T09:15:29;2.78;;;1.77;;
70953;SDS011;58618;47.490;8.736;2022-11-15T09:18:17;2.80;;;2.03;;
70953;SDS011;58618;47.490;8.736;2022-11-15T09:21:08;3.05;;;1.55;;
70953;SDS011;58618;47.490;8.736;2022-11-15T09:23:55;2.47;;;1.83;;
70953;SDS011;58618;47.490;8.736;2022-11-15T09:26:43;2.72;;;2.00;;
70953;SDS011;58618;47.490;8.736;2022-11-15T09:29:30;5.78;;;1.98;;
70953;SDS011;58618;47.490;8.736;2022-11-15T09:32:18;2.93;;;1.87;;
70953;SDS011;58618;47.490;8.736;2022-11-15T09:35:07;3.00;;;2.10;;
70953;SDS011;58618;47.490;8.736;2022-11-15T09:37:56;5.30;;;2.72;;
70953;SDS011;58618;47.490;8.736;2022-11-15T09:40:44;6.70;;;2.42;;
70953;SDS011;58618;47.490;8.736;2022-11-15T09:43:37;3.60;;;2.30;;
70953;SDS011;58618;47.490;8.736;2022-11-15T09:46:35;7.20;;;2.20;;
70953;SDS011;58618;47.490;8.736;2022-11-15T09:49:30;3.83;;;2.28;;
70953;SDS011;58618;47.490;8.736;2022-11-15T09:52:20;3.47;;;2.15;;
70953;SDS011;58618;47.490;8.736;2022-11-15T09:55:08;3.17;;;2.35;;
70953;SDS011;58618;47.490;8.736;2022-11-15T09:58:00;3.28;;;2.13;;
70953;SDS011;58618;47.490;8.736;2022-11-15T10:00:54;4.80;;;2.77;;
70953;SDS011;58618;47.490;8.736;2022-11-15T10:03:45;3.78;;;2.70;;
70953;SDS011;58618;47.490;8.736;2022-11-15T10:06:32;3.30;;;2.08;;
70953;SDS011;58618;47.490;8.736;2022-11-15T10:09:27;3.22;;;1.90;;
70953;SDS011;58618;47.490;8.736;2022-11-15T10:12:19;4.63;;;2.47;;
70953;SDS011;58618;47.490;8.736;2022-11-15T10:15:09;2.67;;;2.03;;
70953;SDS011;58618;47.490;8.736;2022-11-15T10:18:06;3.35;;;2.45;;
70953;SDS011;58618;47.490;8.736;2022-11-15T10:21:02;4.55;;;2.30;;
70953;SDS011;58618;47.490;8.736;2022-11-15T10:23:59;2.67;;;1.90;;
70953;SDS011;58618;47.490;8.736;2022-11-15T10:26:49;2.63;;;2.00;;
70953;SDS011;58618;47.490;8.736;2022-11-15T10:29:40;3.27;;;2.23;;
70953;SDS011;58618;47.490;8.736;2022-11-15T10:32:30;4.30;;;1.85;;
70953;SDS011;58618;47.490;8.736;2022-11-15T10:35:23;2.65;;;2.00;;
70953;SDS011;58618;47.490;8.736;2022-11-15T10:38:12;2.80;;;2.13;;
70953;SDS011;58618;47.490;8.736;2022-11-15T10:41:06;2.88;;;1.88;;
70953;SDS011;58618;47.490;8.736;2022-11-15T10:44:03;2.63;;;1.80;;
70953;SDS011;58618;47.490;8.736;2022-11-15T10:50:25;3.15;;;1.92;;
70953;SDS011;58618;47.490;8.736;2022-11-15T10:53:17;2.42;;;1.83;;
70953;SDS011;58618;47.490;8.736;2022-11-15T10:56:08;3.10;;;2.15;;
70953;SDS011;58618;47.490;8.736;2022-11-15T10:59:03;3.27;;;2.03;;
70953;SDS011;58618;47.490;8.736;2022-11-15T11:01:50;3.35;;;1.92;;
70953;SDS011;58618;47.490;8.736;2022-11-15T11:04:50;3.38;;;2.17;;
70953;SDS011;58618;47.490;8.736;2022-11-15T11:07:38;3.15;;;1.90;;
70953;SDS011;58618;47.490;8.736;2022-11-15T11:10:27;2.88;;;2.10;;
70953;SDS011;58618;47.490;8.736;2022-11-15T11:13:15;5.07;;;2.40;;
70953;SDS011;58618;47.490;8.736;2022-11-15T11:16:18;3.90;;;2.15;;
70953;SDS011;58618;47.490;8.736;2022-11-15T11:19:36;3.78;;;2.05;;
70953;SDS011;58618;47.490;8.736;2022-11-15T11:22:32;3.42;;;2.15;;
70953;SDS011;58618;47.490;8.736;2022-11-15T11:25:28;3.00;;;2.10;;
70953;SDS011;58618;47.490;8.736;2022-11-15T11:28:28;3.73;;;2.37;;
70953;SDS011;58618;47.490;8.736;2022-11-15T11:31:29;2.78;;;1.90;;
70953;SDS011;58618;47.490;8.736;2022-11-15T11:34:32;3.80;;;1.85;;
70953;SDS011;58618;47.490;8.736;2022-11-15T11:37:28;1.65;;;1.35;;
70953;SDS011;58618;47.490;8.736;2022-11-15T11:40:24;2.13;;;1.67;;
70953;SDS011;58618;47.490;8.736;2022-11-15T11:43:20;4.83;;;1.80;;
70953;SDS011;58618;47.490;8.736;2022-11-15T11:46:18;4.47;;;1.80;;
70953;SDS011;58618;47.490;8.736;2022-11-15T11:49:20;2.78;;;1.60;;
70953;SDS011;58618;47.490;8.736;2022-11-15T11:52:16;2.17;;;1.50;;
70953;SDS011;58618;47.490;8.736;2022-11-15T11:55:12;2.30;;;1.58;;
70953;SDS011;58618;47.490;8.736;2022-11-15T11:58:04;3.00;;;1.50;;
70953;SDS011;58618;47.490;8.736;2022-11-15T12:01:11;3.38;;;1.65;;
70953;SDS011;58618;47.490;8.736;2022-11-15T12:04:05;2.53;;;1.40;;
70953;SDS011;58618;47.490;8.736;2022-11-15T12:06:59;3.97;;;1.33;;
70953;SDS011;58618;47.490;8.736;2022-11-15T12:09:51;1.90;;;1.40;;
70953;SDS011;58618;47.490;8.736;2022-11-15T12:12:47;2.40;;;1.67;;
70953;SDS011;58618;47.490;8.736;2022-11-15T12:15:41;1.95;;;1.23;;
70953;SDS011;58618;47.490;8.736;2022-11-15T12:18:32;2.13;;;1.52;;
70953;SDS011;58618;47.490;8.736;2022-11-15T12:21:27;2.13;;;1.30;;
70953;SDS011;58618;47.490;8.736;2022-11-15T12:24:23;2.67;;;1.45;;
70953;SDS011;58618;47.490;8.736;2022-11-15T12:27:15;6.30;;;1.73;;
70953;SDS011;58618;47.490;8.736;2022-11-15T12:30:08;1.90;;;1.30;;
70953;SDS011;58618;47.490;8.736;2022-11-15T12:32:59;2.05;;;1.40;;
70953;SDS011;58618;47.490;8.736;2022-11-15T12:35:56;1.42;;;1.20;;
70953;SDS011;58618;47.490;8.736;2022-11-15T12:38:56;2.17;;;1.08;;
70953;SDS011;58618;47.490;8.736;2022-11-15T12:42:34;2.10;;;1.40;;
70953;SDS011;58618;47.490;8.736;2022-11-15T12:45:26;2.50;;;1.25;;
70953;SDS011;58618;47.490;8.736;2022-11-15T12:55:08;2.75;;;1.27;;
70953;SDS011;58618;47.490;8.736;2022-11-15T12:58:26;1.50;;;1.00;;
70953;SDS011;58618;47.490;8.736;2022-11-15T13:04:36;1.83;;;1.30;;
70953;SDS011;58618;47.490;8.736;2022-11-15T13:10:46;1.95;;;1.35;;
70953;SDS011;58618;47.490;8.736;2022-11-15T13:13:44;3.87;;;2.67;;
70953;SDS011;58618;47.490;8.736;2022-11-15T13:16:32;5.15;;;2.00;;
70953;SDS011;58618;47.490;8.736;2022-11-15T13:19:19;3.63;;;1.92;;
70953;SDS011;58618;47.490;8.736;2022-11-15T13:22:10;5.15;;;2.00;;
70953;SDS011;58618;47.490;8.736;2022-11-15T13:25:15;3.33;;;2.05;;
70953;SDS011;58618;47.490;8.736;2022-11-15T13:28:10;4.50;;;2.53;;
70953;SDS011;58618;47.490;8.736;2022-11-15T13:34:26;5.28;;;2.90;;
70953;SDS011;58618;47.490;8.736;2022-11-15T13:37:27;3.90;;;2.50;;
70953;SDS011;58618;47.490;8.736;2022-11-15T13:40:21;5.22;;;3.00;;
70953;SDS011;58618;47.490;8.736;2022-11-15T13:43:28;6.70;;;3.13;;
70953;SDS011;58618;47.490;8.736;2022-11-15T13:46:21;5.43;;;3.33;;
70953;SDS011;58618;47.490;8.736;2022-11-15T13:49:10;5.38;;;3.55;;
70953;SDS011;58618;47.490;8.736;2022-11-15T13:51:58;6.30;;;3.42;;
70953;SDS011;58618;47.490;8.736;2022-11-15T13:54:48;9.98;;;4.25;;
70953;SDS011;58618;47.490;8.736;2022-11-15T13:57:43;6.80;;;3.80;;
70953;SDS011;58618;47.490;8.736;2022-11-15T14:00:35;6.53;;;3.65;;
70953;SDS011;58618;47.490;8.736;2022-11-15T14:03:26;5.93;;;3.35;;
70953;SDS011;58618;47.490;8.736;2022-11-15T14:06:16;5.53;;;3.60;;
70953;SDS011;58618;47.490;8.736;2022-11-15T14:09:28;8.23;;;3.75;;
70953;SDS011;58618;47.490;8.736;2022-11-15T14:12:26;5.47;;;3.80;;
70953;SDS011;58618;47.490;8.736;2022-11-15T14:15:27;6.40;;;3.95;;
70953;SDS011;58618;47.490;8.736;2022-11-15T14:21:28;7.07;;;3.58;;
70953;SDS011;58618;47.490;8.736;2022-11-15T14:24:16;5.28;;;3.70;;
70953;SDS011;58618;47.490;8.736;2022-11-15T14:27:22;5.97;;;3.23;;
70953;SDS011;58618;47.490;8.736;2022-11-15T14:30:14;6.78;;;3.60;;
70953;SDS011;58618;47.490;8.736;2022-11-15T14:33:11;4.03;;;3.10;;
70953;SDS011;58618;47.490;8.736;2022-11-15T14:36:11;7.65;;;3.47;;
70953;SDS011;58618;47.490;8.736;2022-11-15T14:39:00;4.55;;;2.83;;
70953;SDS011;58618;47.490;8.736;2022-11-15T14:41:51;4.80;;;2.97;;
70953;SDS011;58618;47.490;8.736;2022-11-15T14:44:38;5.78;;;3.15;;
70953;SDS011;58618;47.490;8.736;2022-11-15T14:47:25;5.47;;;3.10;;
70953;SDS011;58618;47.490;8.736;2022-11-15T14:50:13;4.75;;;3.13;;
70953;SDS011;58618;47.490;8.736;2022-11-15T14:53:03;4.75;;;3.25;;
70953;SDS011;58618;47.490;8.736;2022-11-15T14:55:51;6.27;;;3.40;;
70953;SDS011;58618;47.490;8.736;2022-11-15T14:58:38;6.25;;;3.70;;
70953;SDS011;58618;47.490;8.736;2022-11-15T15:01:26;6.55;;;3.67;;
70953;SDS011;58618;47.490;8.736;2022-11-15T15:04:14;4.28;;;2.72;;
70953;SDS011;58618;47.490;8.736;2022-11-15T15:07:01;6.65;;;3.47;;
70953;SDS011;58618;47.490;8.736;2022-11-15T15:09:50;3.90;;;2.77;;
70953;SDS011;58618;47.490;8.736;2022-11-15T15:12:37;6.05;;;3.30;;
70953;SDS011;58618;47.490;8.736;2022-11-15T15:15:26;5.80;;;3.30;;
70953;SDS011;58618;47.490;8.736;2022-11-15T15:18:17;6.65;;;3.10;;
70953;SDS011;58618;47.490;8.736;2022-11-15T15:21:12;5.13;;;3.20;;
70953;SDS011;58618;47.490;8.736;2022-11-15T15:24:05;4.63;;;3.07;;
70953;SDS011;58618;47.490;8.736;2022-11-15T15:26:54;5.78;;;3.33;;
70953;SDS011;58618;47.490;8.736;2022-11-15T15:29:41;5.82;;;3.50;;
70953;SDS011;58618;47.490;8.736;2022-11-15T15:32:29;5.70;;;3.35;;
70953;SDS011;58618;47.490;8.736;2022-11-15T15:35:17;7.18;;;3.53;;
70953;SDS011;58618;47.490;8.736;2022-11-15T15:38:05;5.23;;;2.83;;
70953;SDS011;58618;47.490;8.736;2022-11-15T15:40:52;4.95;;;3.03;;
70953;SDS011;58618;47.490;8.736;2022-11-15T15:43:41;6.32;;;3.50;;
70953;SDS011;58618;47.490;8.736;2022-11-15T15:46:29;5.38;;;3.50;;
70953;SDS011;58618;47.490;8.736;2022-11-15T15:49:17;5.18;;;3.45;;
70953;SDS011;58618;47.490;8.736;2022-11-15T15:52:04;6.40;;;3.57;;
70953;SDS011;58618;47.490;8.736;2022-11-15T15:54:51;5.65;;;3.33;;
70953;SDS011;58618;47.490;8.736;2022-11-15T15:57:39;5.50;;;3.47;;
70953;SDS011;58618;47.490;8.736;2022-11-15T16:00:28;4.68;;;3.03;;
70953;SDS011;58618;47.490;8.736;2022-11-15T16:03:18;7.18;;;3.50;;
70953;SDS011;58618;47.490;8.736;2022-11-15T16:09:23;5.00;;;3.17;;
70953;SDS011;58618;47.490;8.736;2022-11-15T16:12:25;6.75;;;3.88;;
70953;SDS011;58618;47.490;8.736;2022-11-15T16:15:12;8.95;;;4.00;;
70953;SDS011;58618;47.490;8.736;2022-11-15T16:18:01;5.70;;;3.97;;
70953;SDS011;58618;47.490;8.736;2022-11-15T16:20:49;4.93;;;3.47;;
70953;SDS011;58618;47.490;8.736;2022-11-15T16:23:40;7.15;;;3.67;;
70953;SDS011;58618;47.490;8.736;2022-11-15T16:26:28;6.75;;;3.30;;
70953;SDS011;58618;47.490;8.736;2022-11-15T16:29:16;8.90;;;3.42;;
70953;SDS011;58618;47.490;8.736;2022-11-15T16:32:04;6.85;;;4.03;;
70953;SDS011;58618;47.490;8.736;2022-11-15T16:34:53;6.23;;;3.80;;
70953;SDS011;58618;47.490;8.736;2022-11-15T16:37:41;5.75;;;4.13;;
70953;SDS011;58618;47.490;8.736;2022-11-15T16:40:31;5.78;;;3.78;;
70953;SDS011;58618;47.490;8.736;2022-11-15T16:43:20;8.55;;;3.80;;
70953;SDS011;58618;47.490;8.736;2022-11-15T16:46:11;7.00;;;3.97;;
70953;SDS011;58618;47.490;8.736;2022-11-15T16:49:00;6.30;;;4.00;;
70953;SDS011;58618;47.490;8.736;2022-11-15T16:51:49;7.40;;;4.50;;
70953;SDS011;58618;47.490;8.736;2022-11-15T16:54:37;6.65;;;3.90;;
70953;SDS011;58618;47.490;8.736;2022-11-15T16:57:25;5.70;;;3.30;;
70953;SDS011;58618;47.490;8.736;2022-11-15T17:00:13;5.47;;;3.20;;
70953;SDS011;58618;47.490;8.736;2022-11-15T17:03:02;6.83;;;3.50;;
70953;SDS011;58618;47.490;8.736;2022-11-15T17:05:50;7.10;;;4.88;;
70953;SDS011;58618;47.490;8.736;2022-11-15T17:08:39;11.68;;;6.88;;
70953;SDS011;58618;47.490;8.736;2022-11-15T17:11:26;11.48;;;5.80;;
70953;SDS011;58618;47.490;8.736;2022-11-15T17:14:14;10.32;;;5.25;;
70953;SDS011;58618;47.490;8.736;2022-11-15T17:17:02;7.07;;;4.30;;
70953;SDS011;58618;47.490;8.736;2022-11-15T17:19:49;7.97;;;4.38;;
70953;SDS011;58618;47.490;8.736;2022-11-15T17:22:37;8.30;;;5.28;;
70953;SDS011;58618;47.490;8.736;2022-11-15T17:25:26;7.65;;;4.95;;
70953;SDS011;58618;47.490;8.736;2022-11-15T17:28:13;11.80;;;5.53;;
70953;SDS011;58618;47.490;8.736;2022-11-15T17:31:00;7.50;;;4.60;;
70953;SDS011;58618;47.490;8.736;2022-11-15T17:33:48;7.45;;;5.05;;
70953;SDS011;58618;47.490;8.736;2022-11-15T17:36:35;7.38;;;4.53;;
70953;SDS011;58618;47.490;8.736;2022-11-15T17:39:22;9.35;;;4.63;;